sensor_id;sensor_type;location;lat;lon;timestamp;P1;durP1;ratioP1;P2;durP2;ratioP2
9094;SDS011;4583;49.796;9.902;2023-03-01T13:20:20;20.30;;;13.60;;
9094;SDS011;4583;49.796;9.902;2023-03-01T13:50:51;26.60;;;13.47;;
9094;SDS011;4583;49.796;9.902;2023-03-01T14:00:58;19.97;;;12.70;;
9094;SDS011;4583;49.796;9.902;2023-03-01T14:21:47;30.73;;;12.27;;
9094;SDS011;4583;49.796;9.902;2023-03-01T14:31:50;20.87;;;11.93;;
9094;SDS011;4583;49.796;9.902;2023-03-01T14:41:54;17.80;;;12.30;;
9094;SDS011;4583;49.796;9.902;2023-03-01T14:52:02;18.53;;;11.73;;
9094;SDS011;4583;49.796;9.902;2023-03-01T15:02:08;15.45;;;12.07;;
9094;SDS011;4583;49.796;9.902;2023-03-01T15:12:25;15.00;;;10.57;;
9094;SDS011;4583;49.796;9.902;2023-03-01T15:22:43;15.40;;;10.53;;
9094;SDS011;4583;49.796;9.902;2023-03-01T15:33:11;15.57;;;10.47;;
9094;SDS011;4583;49.796;9.902;2023-03-01T15:43:45;15.77;;;10.50;;
9094;SDS011;4583;49.796;9.902;2023-03-01T15:53:49;16.37;;;10.67;;
9094;SDS011;4583;49.796;9.902;2023-03-01T16:03:55;17.37;;;11.60;;
9094;SDS011;4583;49.796;9.902;2023-03-01T16:13:57;17.70;;;11.27;;
9094;SDS011;4583;49.796;9.902;2023-03-01T16:23:59;23.53;;;12.30;;
9094;SDS011;4583;49.796;9.902;2023-03-01T16:34:01;17.63;;;11.60;;
9094;SDS011;4583;49.796;9.902;2023-03-01T16:47:55;20.33;;;12.40;;
9094;SDS011;4583;49.796;9.902;2023-03-01T16:57:57;18.50;;;12.73;;
9094;SDS011;4583;49.796;9.902;2023-03-01T17:07:59;20.23;;;12.73;;
9094;SDS011;4583;49.796;9.902;2023-03-01T17:18:01;23.57;;;12.33;;
9094;SDS011;4583;49.796;9.902;2023-03-01T17:33:51;22.13;;;13.20;;
9094;SDS011;4583;49.796;9.902;2023-03-01T17:43:52;21.73;;;13.17;;
9094;SDS011;4583;49.796;9.902;2023-03-01T17:53:54;23.27;;;13.67;;
9094;SDS011;4583;49.796;9.902;2023-03-01T18:03:56;23.77;;;13.87;;
9094;SDS011;4583;49.796;9.902;2023-03-01T18:20:56;23.70;;;14.77;;
9094;SDS011;4583;49.796;9.902;2023-03-01T18:31:03;26.57;;;14.93;;
9094;SDS011;4583;49.796;9.902;2023-03-01T18:41:09;25.50;;;15.03;;
9094;SDS011;4583;49.796;9.902;2023-03-01T18:51:12;25.77;;;14.63;;
9094;SDS011;4583;49.796;9.902;2023-03-01T19:01:20;23.90;;;18.27;;
9094;SDS011;4583;49.796;9.902;2023-03-01T19:11:24;26.13;;;15.20;;
9094;SDS011;4583;49.796;9.902;2023-03-01T19:21:31;25.60;;;15.10;;
9094;SDS011;4583;49.796;9.902;2023-03-01T19:31:34;25.27;;;15.90;;
9094;SDS011;4583;49.796;9.902;2023-03-01T19:41:36;25.57;;;15.37;;
9094;SDS011;4583;49.796;9.902;2023-03-01T19:51:38;27.47;;;16.00;;
9094;SDS011;4583;49.796;9.902;2023-03-01T20:01:40;25.23;;;15.57;;
9094;SDS011;4583;49.796;9.902;2023-03-01T20:11:44;25.57;;;15.43;;
9094;SDS011;4583;49.796;9.902;2023-03-01T20:21:46;26.60;;;16.20;;
9094;SDS011;4583;49.796;9.902;2023-03-01T20:31:48;27.43;;;16.57;;
9094;SDS011;4583;49.796;9.902;2023-03-01T20:41:50;23.50;;;15.30;;
9094;SDS011;4583;49.796;9.902;2023-03-01T20:51:52;30.97;;;17.37;;
9094;SDS011;4583;49.796;9.902;2023-03-01T21:01:53;29.30;;;17.10;;
9094;SDS011;4583;49.796;9.902;2023-03-01T21:11:55;29.93;;;16.47;;
9094;SDS011;4583;49.796;9.902;2023-03-01T21:21:57;30.33;;;17.60;;
9094;SDS011;4583;49.796;9.902;2023-03-01T21:31:59;31.80;;;18.53;;
9094;SDS011;4583;49.796;9.902;2023-03-01T21:42:04;31.60;;;17.60;;
9094;SDS011;4583;49.796;9.902;2023-03-01T21:52:06;29.43;;;18.07;;
9094;SDS011;4583;49.796;9.902;2023-03-01T22:02:11;31.60;;;18.20;;
9094;SDS011;4583;49.796;9.902;2023-03-01T22:12:14;34.33;;;18.00;;
9094;SDS011;4583;49.796;9.902;2023-03-01T22:22:16;31.67;;;19.53;;
9094;SDS011;4583;49.796;9.902;2023-03-01T22:32:17;32.87;;;19.10;;
9094;SDS011;4583;49.796;9.902;2023-03-01T22:42:19;30.10;;;17.90;;
9094;SDS011;4583;49.796;9.902;2023-03-01T22:52:21;35.10;;;18.93;;
9094;SDS011;4583;49.796;9.902;2023-03-01T23:07:48;32.70;;;18.70;;
9094;SDS011;4583;49.796;9.902;2023-03-01T23:17:49;30.70;;;18.97;;
9094;SDS011;4583;49.796;9.902;2023-03-01T23:27:51;30.20;;;17.73;;
9094;SDS011;4583;49.796;9.902;2023-03-01T23:37:53;31.43;;;18.60;;
9094;SDS011;4583;49.796;9.902;2023-03-01T23:48:39;33.87;;;18.63;;
9094;SDS011;4583;49.796;9.902;2023-03-01T23:58:41;30.40;;;17.80;;
